Time;durP1;ratioP1;P1;durP2;ratioP2;P2;SDS_P1;SDS_P2;PMS_P1;PMS_P2;Temp;Humidity;BMP_temperature;BMP_pressure;BME280_temperature;BME280_humidity;BME280_pressure;Samples;Min_cycle;Max_cycle;Signal;HPM_P1;HPM_P2
2021/12/30 00:01:17;;;;;;;8.25;5.50;;;;;;;;;;5024864;28;20041;-60
2021/12/30 00:03:45;;;;;;;8.15;5.47;;;;;;;;;;5025429;28;20068;-59
2021/12/30 00:06:11;;;;;;;6.47;4.55;;;;;;;;;;5023765;28;20048;-60
2021/12/30 00:08:37;;;;;;;8.52;4.68;;;;;;;;;;5025399;28;20037;-57
2021/12/30 00:11:03;;;;;;;7.03;4.25;;;;;;;;;;5021904;28;20025;-57
2021/12/30 00:13:32;;;;;;;6.72;3.45;;;;;;;;;;5023946;28;20036;-60
2021/12/30 00:15:57;;;;;;;6.22;3.60;;;;;;;;;;5024045;28;20155;-59
2021/12/30 00:18:23;;;;;;;5.82;3.10;;;;;;;;;;5027889;28;20074;-55
2021/12/30 00:20:49;;;;;;;3.95;2.88;;;;;;;;;;5028335;28;20474;-60
2021/12/30 00:23:14;;;;;;;6.25;3.13;;;;;;;;;;5028258;28;20119;-59
2021/12/30 00:25:42;;;;;;;4.72;2.05;;;;;;;;;;5027075;28;20104;-61
2021/12/30 00:28:10;;;;;;;2.97;2.17;;;;;;;;;;5026576;28;20501;-59
2021/12/30 00:30:35;;;;;;;3.20;1.30;;;;;;;;;;5027677;28;20398;-58
2021/12/30 00:33:01;;;;;;;3.78;1.42;;;;;;;;;;5026919;28;20037;-60
2021/12/30 00:35:26;;;;;;;4.65;1.38;;;;;;;;;;5026754;28;20088;-60
2021/12/30 00:37:52;;;;;;;3.53;1.58;;;;;;;;;;5045506;28;20029;-61
2021/12/30 00:40:17;;;;;;;4.47;1.23;;;;;;;;;;5048190;28;20075;-61
2021/12/30 00:42:43;;;;;;;4.80;1.63;;;;;;;;;;5044718;28;20037;-57
2021/12/30 00:45:08;;;;;;;3.25;1.05;;;;;;;;;;5047254;28;20031;-60
2021/12/30 00:47:34;;;;;;;4.43;1.42;;;;;;;;;;5046028;28;20060;-60
2021/12/30 00:49:59;;;;;;;1.42;1.02;;;;;;;;;;5046560;28;20025;-60
2021/12/30 00:52:25;;;;;;;4.28;1.35;;;;;;;;;;5044918;28;20017;-59
2021/12/30 00:54:53;;;;;;;3.95;1.35;;;;;;;;;;5048127;28;20111;-62
2021/12/30 00:57:18;;;;;;;6.65;1.08;;;;;;;;;;5048408;28;20112;-61
2021/12/30 00:59:44;;;;;;;4.68;1.23;;;;;;;;;;5047742;28;20112;-61
2021/12/30 01:02:09;;;;;;;3.13;1.33;;;;;;;;;;5046129;28;20044;-60
2021/12/30 01:04:35;;;;;;;3.17;0.95;;;;;;;;;;5049091;28;20053;-58
2021/12/30 01:07:00;;;;;;;3.03;1.40;;;;;;;;;;5046006;28;20130;-61
2021/12/30 01:09:26;;;;;;;3.08;1.02;;;;;;;;;;5046422;28;20503;-60
2021/12/30 01:11:54;;;;;;;4.90;1.20;;;;;;;;;;5046323;28;20024;-58
2021/12/30 01:14:24;;;;;;;4.30;1.50;;;;;;;;;;5044919;28;20055;-59
2021/12/30 01:16:54;;;;;;;4.57;1.30;;;;;;;;;;5046281;28;20029;-60
2021/12/30 01:19:42;;;;;;;6.20;1.30;;;;;;;;;;5043917;28;20089;-59
2021/12/30 01:22:13;;;;;;;5.05;1.58;;;;;;;;;;5045810;28;20025;-60
2021/12/30 01:24:39;;;;;;;4.35;1.20;;;;;;;;;;5046759;28;20033;-57
2021/12/30 01:27:05;;;;;;;3.60;1.20;;;;;;;;;;5044473;28;20040;-58
2021/12/30 01:29:31;;;;;;;5.82;1.42;;;;;;;;;;5045563;28;20257;-61
2021/12/30 01:31:57;;;;;;;4.40;1.30;;;;;;;;;;5046140;28;20425;-61
2021/12/30 01:34:22;;;;;;;5.18;1.15;;;;;;;;;;5047173;28;20025;-61
2021/12/30 01:36:48;;;;;;;8.52;2.13;;;;;;;;;;5037803;28;20083;-54
2021/12/30 01:39:14;;;;;;;3.53;1.08;;;;;;;;;;5027941;28;20108;-58
2021/12/30 01:41:41;;;;;;;3.88;1.20;;;;;;;;;;5026039;28;20556;-60
2021/12/30 01:44:06;;;;;;;6.70;1.80;;;;;;;;;;5027269;28;20215;-60
2021/12/30 01:46:40;;;;;;;5.60;1.00;;;;;;;;;;5024998;28;20632;-61
2021/12/30 01:49:06;;;;;;;4.97;1.10;;;;;;;;;;5026818;28;20052;-61
2021/12/30 01:51:31;;;;;;;5.18;1.20;;;;;;;;;;5024709;28;20029;-60
2021/12/30 01:53:57;;;;;;;3.63;0.93;;;;;;;;;;5008889;28;20064;-61
2021/12/30 01:56:23;;;;;;;6.97;1.45;;;;;;;;;;5024716;28;20029;-59
2021/12/30 01:58:48;;;;;;;4.75;1.30;;;;;;;;;;5026353;28;20025;-60
2021/12/30 02:01:14;;;;;;;5.63;1.27;;;;;;;;;;5008486;28;20021;-60
2021/12/30 02:03:39;;;;;;;7.78;1.75;;;;;;;;;;5026498;28;20044;-61
2021/12/30 02:06:05;;;;;;;4.97;1.13;;;;;;;;;;5026366;28;20029;-60
2021/12/30 02:08:30;;;;;;;6.20;1.45;;;;;;;;;;5008687;28;20044;-60
2021/12/30 02:10:56;;;;;;;3.85;1.05;;;;;;;;;;5026735;28;20028;-60
2021/12/30 02:13:21;;;;;;;5.68;1.70;;;;;;;;;;5025188;28;20052;-60
2021/12/30 02:15:48;;;;;;;2.13;0.93;;;;;;;;;;5024022;28;20039;-60
2021/12/30 02:18:14;;;;;;;4.22;1.40;;;;;;;;;;5025712;28;20104;-61
2021/12/30 02:20:46;;;;;;;7.00;1.70;;;;;;;;;;5026354;28;20478;-60
2021/12/30 02:23:21;;;;;;;5.88;1.50;;;;;;;;;;5026185;28;20068;-55
2021/12/30 02:25:48;;;;;;;5.25;1.50;;;;;;;;;;5025258;28;20040;-55
2021/12/30 02:28:16;;;;;;;6.78;1.60;;;;;;;;;;5025978;28;20435;-61
2021/12/30 02:30:42;;;;;;;7.97;1.52;;;;;;;;;;5025442;28;20513;-59
2021/12/30 02:33:08;;;;;;;4.13;1.40;;;;;;;;;;5027121;28;20057;-60
2021/12/30 02:35:34;;;;;;;9.32;1.75;;;;;;;;;;5027173;28;20057;-60
2021/12/30 02:38:00;;;;;;;6.97;1.67;;;;;;;;;;5024933;28;20021;-61
2021/12/30 02:40:28;;;;;;;5.55;1.75;;;;;;;;;;5026698;28;20041;-60
2021/12/30 02:42:54;;;;;;;9.18;1.90;;;;;;;;;;5026115;28;20033;-61
2021/12/30 02:45:20;;;;;;;5.88;1.85;;;;;;;;;;5022800;28;20037;-60
2021/12/30 02:47:46;;;;;;;8.50;1.80;;;;;;;;;;5027813;28;20039;-60
2021/12/30 02:50:12;;;;;;;7.43;1.98;;;;;;;;;;5023296;28;20083;-60
2021/12/30 02:52:37;;;;;;;5.80;1.88;;;;;;;;;;5006250;28;20037;-61
2021/12/30 02:55:03;;;;;;;5.25;1.67;;;;;;;;;;5024986;28;20029;-60
2021/12/30 02:57:29;;;;;;;8.25;2.03;;;;;;;;;;5025560;28;20021;-60
2021/12/30 02:59:54;;;;;;;5.75;1.83;;;;;;;;;;5026024;28;20056;-58
2021/12/30 03:02:19;;;;;;;6.32;1.80;;;;;;;;;;5026526;28;20040;-55
2021/12/30 03:04:45;;;;;;;5.43;1.80;;;;;;;;;;5024258;28;21225;-60
2021/12/30 03:07:10;;;;;;;7.85;1.73;;;;;;;;;;5026008;28;20029;-61
2021/12/30 03:09:36;;;;;;;4.47;1.70;;;;;;;;;;5024869;28;20496;-60
2021/12/30 03:12:02;;;;;;;7.45;1.90;;;;;;;;;;5025783;28;20056;-60
2021/12/30 03:14:28;;;;;;;8.38;2.00;;;;;;;;;;5026018;28;20116;-61
2021/12/30 03:16:54;;;;;;;6.35;1.90;;;;;;;;;;5024370;28;20037;-60
2021/12/30 03:19:19;;;;;;;4.03;1.90;;;;;;;;;;5025186;28;20370;-61
2021/12/30 03:21:46;;;;;;;9.32;2.20;;;;;;;;;;5007792;28;20040;-59
2021/12/30 03:24:11;;;;;;;3.75;1.38;;;;;;;;;;5023959;28;20485;-62
2021/12/30 03:26:37;;;;;;;4.95;1.60;;;;;;;;;;5025956;28;20087;-61
2021/12/30 03:29:04;;;;;;;4.97;1.88;;;;;;;;;;5025522;28;20029;-60
2021/12/30 03:31:30;;;;;;;6.80;1.92;;;;;;;;;;5024349;28;20033;-59
2021/12/30 03:33:55;;;;;;;5.35;1.77;;;;;;;;;;5026089;28;20096;-56
2021/12/30 03:36:21;;;;;;;7.07;2.15;;;;;;;;;;5023414;28;20037;-59
2021/12/30 03:38:50;;;;;;;5.40;1.50;;;;;;;;;;5025447;28;20031;-58
2021/12/30 03:41:17;;;;;;;7.53;2.50;;;;;;;;;;5023172;28;20049;-58
2021/12/30 03:43:43;;;;;;;4.05;1.52;;;;;;;;;;5025094;28;20041;-58
2021/12/30 03:46:10;;;;;;;3.90;1.50;;;;;;;;;;5022905;28;20057;-59
2021/12/30 03:48:41;;;;;;;3.70;1.45;;;;;;;;;;5025328;28;20033;-59
2021/12/30 03:51:11;;;;;;;7.40;1.90;;;;;;;;;;5023418;28;20057;-59
2021/12/30 03:53:40;;;;;;;7.93;1.60;;;;;;;;;;5026450;28;20175;-59
2021/12/30 03:56:10;;;;;;;4.35;1.60;;;;;;;;;;5023483;28;20040;-58
2021/12/30 03:58:38;;;;;;;8.00;2.05;;;;;;;;;;5024368;28;20029;-58
2021/12/30 04:01:05;;;;;;;2.35;1.50;;;;;;;;;;5023677;28;20028;-59
2021/12/30 04:03:30;;;;;;;5.78;1.80;;;;;;;;;;5023423;28;20033;-58
2021/12/30 04:05:56;;;;;;;6.35;1.50;;;;;;;;;;5024144;28;20039;-59
2021/12/30 04:08:21;;;;;;;4.45;1.60;;;;;;;;;;5023320;28;20030;-56
2021/12/30 04:10:46;;;;;;;5.95;2.05;;;;;;;;;;5024946;28;20431;-58
2021/12/30 04:13:13;;;;;;;9.85;2.25;;;;;;;;;;5024387;28;20117;-58
2021/12/30 04:15:39;;;;;;;5.90;1.77;;;;;;;;;;5023670;28;20033;-57
2021/12/30 04:18:04;;;;;;;8.77;2.55;;;;;;;;;;5022733;28;20091;-53
2021/12/30 04:20:29;;;;;;;7.93;1.92;;;;;;;;;;5025231;28;20069;-59
2021/12/30 04:22:55;;;;;;;6.00;1.92;;;;;;;;;;5023506;28;20026;-58
2021/12/30 04:25:20;;;;;;;6.47;2.05;;;;;;;;;;5026072;28;20037;-57
2021/12/30 04:27:46;;;;;;;9.10;2.10;;;;;;;;;;5022991;28;20179;-58
2021/12/30 04:30:13;;;;;;;10.65;2.28;;;;;;;;;;5024096;28;20032;-54
2021/12/30 04:32:39;;;;;;;7.68;2.72;;;;;;;;;;5023984;28;20033;-54
2021/12/30 04:35:06;;;;;;;5.75;1.75;;;;;;;;;;5025224;28;20025;-59
2021/12/30 04:37:31;;;;;;;6.03;1.70;;;;;;;;;;5024207;28;20029;-54
2021/12/30 04:39:57;;;;;;;8.15;2.20;;;;;;;;;;5027217;28;20029;-59
2021/12/30 04:42:22;;;;;;;6.10;1.77;;;;;;;;;;5020842;28;20041;-59
2021/12/30 04:44:48;;;;;;;8.77;2.78;;;;;;;;;;5024892;28;20026;-60
2021/12/30 04:47:14;;;;;;;8.05;2.42;;;;;;;;;;5023888;28;20057;-59
2021/12/30 04:49:40;;;;;;;7.68;2.20;;;;;;;;;;5026748;28;20136;-59
2021/12/30 04:52:05;;;;;;;10.88;2.40;;;;;;;;;;5024399;28;20112;-58
2021/12/30 04:54:31;;;;;;;6.82;2.15;;;;;;;;;;5025358;28;20036;-58
2021/12/30 04:56:56;;;;;;;7.72;2.28;;;;;;;;;;5022817;28;20359;-57
2021/12/30 04:59:22;;;;;;;4.60;2.13;;;;;;;;;;5024036;28;20057;-57
2021/12/30 05:01:47;;;;;;;10.48;2.88;;;;;;;;;;5024056;28;20072;-58
2021/12/30 05:04:13;;;;;;;12.95;3.15;;;;;;;;;;5026453;28;20473;-59
2021/12/30 05:06:38;;;;;;;8.30;2.70;;;;;;;;;;5027118;28;20026;-58
2021/12/30 05:09:08;;;;;;;6.82;2.50;;;;;;;;;;5027367;28;20034;-58
2021/12/30 05:11:34;;;;;;;11.25;2.72;;;;;;;;;;5026611;28;20098;-59
2021/12/30 05:13:59;;;;;;;8.73;2.53;;;;;;;;;;5010855;28;20033;-60
2021/12/30 05:16:25;;;;;;;8.50;2.85;;;;;;;;;;5026672;28;20087;-59
2021/12/30 05:18:55;;;;;;;9.30;2.40;;;;;;;;;;5027361;28;20425;-59
2021/12/30 05:21:21;;;;;;;12.30;2.75;;;;;;;;;;5026550;28;20021;-56
2021/12/30 05:23:46;;;;;;;6.53;2.60;;;;;;;;;;5027357;28;20539;-58
2021/12/30 05:26:11;;;;;;;5.03;2.08;;;;;;;;;;5028219;28;20072;-47
2021/12/30 05:28:37;;;;;;;7.70;2.42;;;;;;;;;;5023793;28;20030;-46
2021/12/30 05:31:02;;;;;;;6.10;2.30;;;;;;;;;;5027163;28;20075;-50
2021/12/30 05:33:28;;;;;;;7.60;2.47;;;;;;;;;;5025994;28;20127;-48
2021/12/30 05:35:53;;;;;;;6.53;2.20;;;;;;;;;;5027591;28;20543;-51
2021/12/30 05:38:18;;;;;;;8.68;2.85;;;;;;;;;;5026083;28;20478;-52
2021/12/30 05:40:44;;;;;;;9.85;2.90;;;;;;;;;;5026774;28;20848;-49
2021/12/30 05:43:09;;;;;;;6.25;2.67;;;;;;;;;;5025074;28;20148;-49
2021/12/30 05:45:35;;;;;;;9.18;3.15;;;;;;;;;;5026054;28;20025;-52
2021/12/30 05:48:00;;;;;;;9.10;3.00;;;;;;;;;;5024252;28;20026;-47
2021/12/30 05:50:28;;;;;;;18.63;12.18;;;;;;;;;;5028634;28;20386;-51
2021/12/30 05:52:54;;;;;;;12.45;7.65;;;;;;;;;;5024617;28;20025;-48
2021/12/30 05:55:20;;;;;;;8.23;3.90;;;;;;;;;;5010684;28;20132;-46
2021/12/30 05:57:46;;;;;;;7.32;3.47;;;;;;;;;;5025832;28;20022;-48
2021/12/30 06:00:15;;;;;;;5.68;3.05;;;;;;;;;;5026759;28;20106;-48
2021/12/30 06:02:41;;;;;;;7.40;3.13;;;;;;;;;;5026181;28;20052;-46
2021/12/30 06:05:07;;;;;;;8.00;2.83;;;;;;;;;;5026029;28;20091;-49
2021/12/30 06:07:32;;;;;;;13.00;3.17;;;;;;;;;;5025944;28;20030;-50
2021/12/30 06:09:58;;;;;;;8.20;3.00;;;;;;;;;;5024560;28;20029;-49
2021/12/30 06:12:23;;;;;;;8.45;2.72;;;;;;;;;;5026729;28;20068;-51
2021/12/30 06:14:49;;;;;;;8.25;3.00;;;;;;;;;;5028235;28;20037;-47
2021/12/30 06:17:15;;;;;;;4.13;2.78;;;;;;;;;;5026332;28;20285;-46
2021/12/30 06:19:42;;;;;;;6.35;3.00;;;;;;;;;;5026372;28;20026;-46
2021/12/30 06:22:12;;;;;;;15.63;3.88;;;;;;;;;;5025104;28;20065;-48
2021/12/30 06:24:38;;;;;;;6.75;3.10;;;;;;;;;;5024419;28;20113;-48
2021/12/30 06:27:04;;;;;;;5.43;3.40;;;;;;;;;;5007506;28;20514;-47
2021/12/30 06:29:30;;;;;;;8.45;3.60;;;;;;;;;;5025864;28;20104;-48
2021/12/30 06:31:55;;;;;;;10.77;3.15;;;;;;;;;;5026352;28;20186;-51
2021/12/30 06:34:21;;;;;;;7.55;3.33;;;;;;;;;;5024700;28;20030;-47
2021/12/30 06:36:47;;;;;;;7.35;2.85;;;;;;;;;;5007349;28;20021;-46
2021/12/30 06:39:12;;;;;;;6.68;3.00;;;;;;;;;;5043444;28;20029;-48
2021/12/30 06:41:37;;;;;;;10.30;3.20;;;;;;;;;;5046267;28;20036;-49
2021/12/30 06:44:03;;;;;;;10.85;3.47;;;;;;;;;;5043599;28;20067;-46
2021/12/30 06:46:28;;;;;;;7.82;2.92;;;;;;;;;;5046545;28;20025;-48
2021/12/30 06:48:54;;;;;;;9.88;3.70;;;;;;;;;;5044073;28;20036;-54
2021/12/30 06:51:23;;;;;;;15.20;5.13;;;;;;;;;;5046023;28;20666;-50
2021/12/30 06:53:49;;;;;;;6.82;3.55;;;;;;;;;;5045154;28;20075;-51
2021/12/30 06:56:15;;;;;;;7.30;3.10;;;;;;;;;;5045700;28;20039;-49
2021/12/30 06:58:41;;;;;;;6.55;3.08;;;;;;;;;;5058864;28;20103;-51
2021/12/30 07:01:06;;;;;;;9.40;3.50;;;;;;;;;;5044791;28;20062;-49
2021/12/30 07:03:32;;;;;;;15.32;3.90;;;;;;;;;;5045023;28;20029;-50
2021/12/30 07:05:57;;;;;;;8.98;3.33;;;;;;;;;;5043942;28;20028;-48
2021/12/30 07:08:23;;;;;;;9.68;3.53;;;;;;;;;;5043853;28;20037;-47
2021/12/30 07:10:49;;;;;;;6.55;3.50;;;;;;;;;;5045398;28;20028;-47
2021/12/30 07:13:15;;;;;;;12.43;6.13;;;;;;;;;;5044590;28;20031;-50
2021/12/30 07:15:40;;;;;;;11.32;3.63;;;;;;;;;;5044346;28;20117;-48
2021/12/30 07:18:05;;;;;;;7.70;3.22;;;;;;;;;;5045085;28;20024;-49
2021/12/30 07:20:31;;;;;;;9.10;3.83;;;;;;;;;;5045745;28;20496;-48
2021/12/30 07:22:57;;;;;;;8.68;3.65;;;;;;;;;;5042839;28;20033;-46
2021/12/30 07:25:22;;;;;;;6.32;3.40;;;;;;;;;;5043215;28;20051;-47
2021/12/30 07:27:50;;;;;;;11.45;3.60;;;;;;;;;;5042369;28;20057;-50
2021/12/30 07:30:17;;;;;;;8.25;4.13;;;;;;;;;;5043284;28;20059;-47
2021/12/30 07:32:43;;;;;;;18.15;4.38;;;;;;;;;;5041287;28;20047;-51
2021/12/30 07:35:08;;;;;;;8.82;3.90;;;;;;;;;;5042941;28;20289;-46
2021/12/30 07:37:34;;;;;;;8.18;3.75;;;;;;;;;;5026956;28;20514;-49
2021/12/30 07:39:59;;;;;;;8.73;4.47;;;;;;;;;;5023112;28;20589;-50
2021/12/30 07:42:25;;;;;;;13.18;6.50;;;;;;;;;;5025619;28;20424;-51
2021/12/30 07:44:50;;;;;;;13.80;7.13;;;;;;;;;;5024494;28;20120;-49
2021/12/30 07:47:16;;;;;;;13.30;6.70;;;;;;;;;;5025240;28;20038;-50
2021/12/30 07:49:41;;;;;;;12.45;6.28;;;;;;;;;;5022789;28;20034;-50
2021/12/30 07:52:07;;;;;;;10.70;5.63;;;;;;;;;;5008126;28;20032;-49
2021/12/30 07:54:33;;;;;;;10.10;4.80;;;;;;;;;;5006004;28;20037;-48
2021/12/30 07:56:59;;;;;;;9.45;5.47;;;;;;;;;;5024394;28;20032;-46
2021/12/30 07:59:24;;;;;;;12.45;4.93;;;;;;;;;;5023792;28;20493;-49
2021/12/30 08:01:50;;;;;;;11.35;5.25;;;;;;;;;;5024481;28;20037;-49
2021/12/30 08:04:15;;;;;;;12.35;6.38;;;;;;;;;;5005706;28;20611;-49
2021/12/30 08:06:41;;;;;;;8.95;4.18;;;;;;;;;;5021698;28;20030;-49
2021/12/30 08:09:06;;;;;;;6.25;3.50;;;;;;;;;;5022412;28;20038;-52
2021/12/30 08:11:33;;;;;;;8.82;4.25;;;;;;;;;;5022514;28;20116;-46
2021/12/30 08:13:59;;;;;;;7.30;4.00;;;;;;;;;;5023939;28;20079;-49
2021/12/30 08:16:29;;;;;;;8.60;4.70;;;;;;;;;;5008266;28;20087;-48
2021/12/30 08:18:55;;;;;;;9.15;4.40;;;;;;;;;;5007116;28;20032;-46
2021/12/30 08:21:21;;;;;;;9.65;5.30;;;;;;;;;;5024081;28;20466;-48
2021/12/30 08:23:47;;;;;;;10.43;5.05;;;;;;;;;;5005315;28;20409;-48
2021/12/30 08:26:13;;;;;;;8.38;4.40;;;;;;;;;;5004368;28;20018;-49
2021/12/30 08:28:39;;;;;;;7.43;4.15;;;;;;;;;;5022803;28;20060;-47
2021/12/30 08:31:04;;;;;;;8.35;4.45;;;;;;;;;;5022322;28;20032;-46
2021/12/30 08:33:30;;;;;;;7.22;3.80;;;;;;;;;;5006514;28;20048;-50
2021/12/30 08:35:56;;;;;;;6.13;3.67;;;;;;;;;;5022884;28;20609;-51
2021/12/30 08:38:21;;;;;;;7.32;3.45;;;;;;;;;;5007386;28;20388;-48
2021/12/30 08:40:47;;;;;;;4.75;3.50;;;;;;;;;;5028788;28;20043;-46
2021/12/30 08:43:16;;;;;;;6.82;3.85;;;;;;;;;;5031440;28;20059;-46
2021/12/30 08:45:42;;;;;;;6.50;3.47;;;;;;;;;;5029661;28;20536;-47
2021/12/30 08:48:08;;;;;;;6.18;3.50;;;;;;;;;;5030483;28;20351;-48
2021/12/30 08:50:34;;;;;;;4.97;3.08;;;;;;;;;;5030139;28;20036;-49
2021/12/30 08:52:59;;;;;;;5.95;3.10;;;;;;;;;;5031813;28;20596;-47
2021/12/30 08:55:25;;;;;;;5.50;2.92;;;;;;;;;;5029913;28;20101;-52
2021/12/30 08:57:51;;;;;;;3.75;2.53;;;;;;;;;;5030678;28;20036;-47
2021/12/30 09:00:17;;;;;;;6.68;2.65;;;;;;;;;;5029168;28;20037;-49
2021/12/30 09:02:42;;;;;;;4.20;2.63;;;;;;;;;;5030913;28;20079;-47
2021/12/30 09:05:09;;;;;;;6.18;2.42;;;;;;;;;;5029988;28;20999;-52
2021/12/30 09:07:34;;;;;;;7.00;2.78;;;;;;;;;;5030805;28;20458;-49
2021/12/30 09:10:00;;;;;;;9.82;3.40;;;;;;;;;;5029010;28;20033;-48
2021/12/30 09:12:25;;;;;;;3.90;2.63;;;;;;;;;;5012803;28;20410;-48
2021/12/30 09:14:51;;;;;;;3.67;2.92;;;;;;;;;;5029695;28;20521;-48
2021/12/30 09:17:16;;;;;;;2.90;1.92;;;;;;;;;;5029736;28;20432;-48
2021/12/30 09:19:42;;;;;;;5.13;2.00;;;;;;;;;;5029700;28;20373;-46
2021/12/30 09:22:07;;;;;;;3.55;1.60;;;;;;;;;;5030649;28;20086;-48
2021/12/30 09:24:32;;;;;;;1.92;1.77;;;;;;;;;;5015163;28;20037;-54
2021/12/30 09:26:58;;;;;;;2.20;1.83;;;;;;;;;;5031407;28;20041;-48
2021/12/30 09:29:23;;;;;;;2.60;2.05;;;;;;;;;;5029068;28;20022;-48
2021/12/30 09:31:50;;;;;;;2.83;1.85;;;;;;;;;;5030536;28;20036;-50
2021/12/30 09:34:16;;;;;;;2.67;1.90;;;;;;;;;;5031792;28;20140;-49
2021/12/30 09:36:44;;;;;;;2.67;1.80;;;;;;;;;;5029679;28;20120;-53
2021/12/30 09:39:11;;;;;;;6.60;2.00;;;;;;;;;;5027973;28;20025;-55
2021/12/30 09:41:43;;;;;;;4.50;1.83;;;;;;;;;;5024542;28;20519;-50
2021/12/30 09:44:12;;;;;;;4.05;1.80;;;;;;;;;;5027315;28;20037;-48
2021/12/30 09:46:37;;;;;;;4.50;2.28;;;;;;;;;;5027926;28;20033;-49
2021/12/30 09:49:07;;;;;;;3.47;1.95;;;;;;;;;;5009272;28;20503;-51
2021/12/30 09:51:33;;;;;;;4.45;2.33;;;;;;;;;;5026047;28;20030;-50
2021/12/30 09:54:00;;;;;;;6.57;2.70;;;;;;;;;;5027837;28;20444;-50
2021/12/30 09:56:26;;;;;;;6.95;2.80;;;;;;;;;;5025494;28;20025;-53
2021/12/30 09:58:51;;;;;;;9.18;3.10;;;;;;;;;;5028646;28;20033;-53
2021/12/30 10:01:17;;;;;;;7.28;4.40;;;;;;;;;;5026309;28;20039;-49
2021/12/30 10:03:43;;;;;;;5.43;3.20;;;;;;;;;;5028277;28;20111;-49
2021/12/30 10:06:11;;;;;;;4.10;3.13;;;;;;;;;;5009175;28;20031;-47
2021/12/30 10:08:42;;;;;;;4.57;2.05;;;;;;;;;;5027617;28;20044;-48
2021/12/30 10:11:14;;;;;;;5.47;2.35;;;;;;;;;;5025521;28;20072;-50
2021/12/30 10:13:55;;;;;;;5.75;2.17;;;;;;;;;;5009472;28;20389;-50
2021/12/30 10:16:24;;;;;;;6.00;2.42;;;;;;;;;;5026345;28;20056;-51
2021/12/30 10:19:05;;;;;;;7.30;2.20;;;;;;;;;;5029738;28;20030;-51
2021/12/30 10:21:39;;;;;;;5.70;1.70;;;;;;;;;;5026145;28;20048;-52
2021/12/30 10:24:07;;;;;;;4.82;1.60;;;;;;;;;;5025603;28;20034;-53
2021/12/30 10:26:50;;;;;;;3.80;1.40;;;;;;;;;;5026634;28;20056;-48
2021/12/30 10:29:16;;;;;;;2.35;1.20;;;;;;;;;;5025529;28;20116;-47
2021/12/30 10:31:43;;;;;;;0.70;0.70;;;;;;;;;;5025965;28;20721;-48
2021/12/30 10:34:10;;;;;;;2.67;1.00;;;;;;;;;;5026215;28;20036;-48
2021/12/30 10:36:38;;;;;;;1.23;0.90;;;;;;;;;;5026936;28;20045;-47
2021/12/30 10:39:25;;;;;;;0.60;0.60;;;;;;;;;;5024808;28;20028;-48
2021/12/30 10:42:09;;;;;;;1.20;1.10;;;;;;;;;;5025007;28;20052;-48
2021/12/30 10:45:04;;;;;;;1.08;0.80;;;;;;;;;;5006256;28;20025;-50
2021/12/30 10:47:32;;;;;;;1.27;0.80;;;;;;;;;;5024854;28;20149;-48
2021/12/30 10:50:11;;;;;;;0.70;0.52;;;;;;;;;;5024289;28;20032;-51
2021/12/30 10:52:49;;;;;;;4.13;0.63;;;;;;;;;;5024093;28;20405;-49
2021/12/30 10:55:15;;;;;;;0.70;0.70;;;;;;;;;;5026122;28;20040;-49
2021/12/30 10:57:41;;;;;;;0.85;0.68;;;;;;;;;;5023054;28;20489;-48
2021/12/30 11:00:08;;;;;;;0.93;0.60;;;;;;;;;;5008963;28;20064;-53
2021/12/30 11:02:34;;;;;;;1.02;0.43;;;;;;;;;;5025072;28;20029;-52
2021/12/30 11:05:06;;;;;;;0.70;0.60;;;;;;;;;;5025714;28;20422;-50
2021/12/30 11:08:04;;;;;;;0.82;0.80;;;;;;;;;;5027852;28;20025;-49
2021/12/30 11:10:37;;;;;;;2.95;0.90;;;;;;;;;;4990921;28;20045;-48
2021/12/30 11:13:11;;;;;;;1.70;1.00;;;;;;;;;;5025488;28;20064;-51
2021/12/30 11:15:36;;;;;;;1.17;0.73;;;;;;;;;;5024136;28;20252;-50
2021/12/30 11:18:20;;;;;;;1.63;0.63;;;;;;;;;;5023721;28;20776;-48
2021/12/30 11:20:47;;;;;;;0.65;0.55;;;;;;;;;;5025176;28;20087;-48
2021/12/30 11:23:15;;;;;;;2.08;0.70;;;;;;;;;;5023400;28;20029;-48
2021/12/30 11:25:40;;;;;;;0.85;0.50;;;;;;;;;;5023287;28;20116;-50
2021/12/30 11:28:06;;;;;;;0.40;0.40;;;;;;;;;;5025864;28;20109;-47
2021/12/30 11:30:31;;;;;;;1.50;0.40;;;;;;;;;;5025364;28;20064;-49
2021/12/30 11:32:57;;;;;;;0.50;0.35;;;;;;;;;;5025539;28;20029;-47
2021/12/30 11:35:26;;;;;;;0.93;0.40;;;;;;;;;;5025280;28;20036;-48
2021/12/30 11:37:53;;;;;;;1.17;0.40;;;;;;;;;;5026018;28;20075;-50
2021/12/30 11:40:21;;;;;;;1.33;0.40;;;;;;;;;;5026091;28;20044;-52
2021/12/30 11:42:49;;;;;;;0.60;0.40;;;;;;;;;;5025802;28;20033;-51
2021/12/30 11:45:32;;;;;;;0.35;0.30;;;;;;;;;;5022349;28;20036;-52
2021/12/30 11:48:05;;;;;;;3.38;0.52;;;;;;;;;;5025736;28;20037;-47
2021/12/30 11:50:37;;;;;;;0.47;0.40;;;;;;;;;;5024601;28;20037;-49
2021/12/30 11:53:11;;;;;;;2.20;0.50;;;;;;;;;;5022382;28;20087;-47
2021/12/30 11:55:55;;;;;;;0.30;0.30;;;;;;;;;;5027192;28;20098;-47
2021/12/30 11:58:31;;;;;;;0.35;0.35;;;;;;;;;;5008223;28;20065;-48
2021/12/30 12:00:58;;;;;;;0.30;0.30;;;;;;;;;;5042020;28;20075;-52
2021/12/30 12:03:52;;;;;;;0.73;0.30;;;;;;;;;;5023641;28;20029;-50
2021/12/30 12:06:32;;;;;;;0.35;0.30;;;;;;;;;;5022490;28;20042;-52
2021/12/30 12:09:03;;;;;;;0.43;0.30;;;;;;;;;;5024538;28;20476;-49
2021/12/30 12:11:31;;;;;;;2.23;0.20;;;;;;;;;;5025074;28;20049;-52
2021/12/30 12:14:21;;;;;;;0.30;0.30;;;;;;;;;;5024911;28;20052;-49
2021/12/30 12:16:59;;;;;;;0.30;0.20;;;;;;;;;;5024262;28;20485;-48
2021/12/30 12:19:39;;;;;;;0.20;0.20;;;;;;;;;;5024273;28;20029;-54
2021/12/30 12:22:18;;;;;;;0.20;0.20;;;;;;;;;;5022347;28;20057;-53
2021/12/30 12:25:04;;;;;;;0.30;0.20;;;;;;;;;;5023673;28;20029;-53
2021/12/30 12:27:34;;;;;;;0.40;0.38;;;;;;;;;;5022898;28;20056;-50
2021/12/30 12:30:00;;;;;;;0.50;0.50;;;;;;;;;;5024137;28;20033;-51
2021/12/30 12:32:34;;;;;;;0.30;0.30;;;;;;;;;;5024969;28;20573;-49
2021/12/30 12:35:03;;;;;;;0.60;0.38;;;;;;;;;;5025186;28;20634;-48
2021/12/30 12:37:40;;;;;;;0.25;0.25;;;;;;;;;;5033632;28;20033;-50
2021/12/30 12:40:05;;;;;;;1.85;0.47;;;;;;;;;;5043125;28;20366;-53
2021/12/30 12:42:50;;;;;;;1.40;0.50;;;;;;;;;;5043101;28;20102;-50
2021/12/30 12:45:30;;;;;;;0.30;0.30;;;;;;;;;;5043917;28;20045;-49
2021/12/30 12:48:26;;;;;;;0.47;0.47;;;;;;;;;;5044622;28;20036;-53
2021/12/30 12:50:58;;;;;;;1.95;0.47;;;;;;;;;;5040994;28;20112;-53
2021/12/30 12:53:23;;;;;;;0.50;0.50;;;;;;;;;;5042842;28;20087;-50
2021/12/30 12:55:58;;;;;;;0.40;0.40;;;;;;;;;;5042893;28;20515;-48
2021/12/30 12:58:30;;;;;;;0.73;0.50;;;;;;;;;;5042752;28;20025;-48
2021/12/30 13:00:57;;;;;;;0.60;0.43;;;;;;;;;;5043986;28;20028;-48
2021/12/30 13:07:34;;;;;;;0.30;0.30;;;;;;;;;;5043272;28;20588;-55
2021/12/30 13:44:23;;;;;;;0.68;0.20;;;;;;;;;;5063183;28;20048;-51
2021/12/30 13:46:48;;;;;;;4.05;0.45;;;;;;;;;;5064437;28;20264;-50
2021/12/30 13:49:14;;;;;;;0.43;0.20;;;;;;;;;;5051243;28;20020;-55
2021/12/30 13:51:40;;;;;;;1.35;0.30;;;;;;;;;;5064454;28;20116;-57
2021/12/30 13:54:07;;;;;;;0.55;0.30;;;;;;;;;;5068754;28;20186;-54
2021/12/30 13:56:33;;;;;;;0.30;0.20;;;;;;;;;;5065826;28;20059;-56
2021/12/30 13:59:03;;;;;;;1.75;0.28;;;;;;;;;;5067432;28;20303;-53
2021/12/30 14:01:32;;;;;;;0.57;0.30;;;;;;;;;;5067237;28;20286;-50
2021/12/30 14:04:09;;;;;;;2.92;0.75;;;;;;;;;;5065926;28;20089;-54
2021/12/30 14:06:38;;;;;;;1.65;0.25;;;;;;;;;;5066410;28;20055;-55
2021/12/30 14:09:09;;;;;;;2.00;0.25;;;;;;;;;;5068074;28;20165;-52
2021/12/30 14:11:49;;;;;;;0.40;0.20;;;;;;;;;;5068769;28;20036;-53
2021/12/30 14:14:23;;;;;;;0.32;0.20;;;;;;;;;;5063885;28;20031;-54
2021/12/30 14:16:55;;;;;;;0.32;0.25;;;;;;;;;;5066521;28;20107;-52
2021/12/30 14:19:36;;;;;;;2.05;0.47;;;;;;;;;;5063658;28;20977;-56
2021/12/30 14:22:03;;;;;;;1.30;0.28;;;;;;;;;;5072367;28;20694;-52
2021/12/30 14:24:29;;;;;;;0.65;0.20;;;;;;;;;;5048124;28;20036;-57
2021/12/30 14:27:03;;;;;;;1.98;0.40;;;;;;;;;;5065638;28;20030;-58
2021/12/30 14:29:33;;;;;;;0.80;0.50;;;;;;;;;;5048146;28;20025;-54
2021/12/30 14:32:03;;;;;;;0.93;0.30;;;;;;;;;;5064677;28;20043;-57
2021/12/30 14:34:34;;;;;;;0.77;0.25;;;;;;;;;;5065357;28;20486;-56
2021/12/30 14:37:07;;;;;;;0.60;0.30;;;;;;;;;;5067584;28;20032;-56
2021/12/30 14:39:47;;;;;;;1.30;0.38;;;;;;;;;;5066631;28;20086;-58
2021/12/30 14:42:19;;;;;;;0.30;0.30;;;;;;;;;;5064993;28;20091;-57
2021/12/30 14:45:10;;;;;;;0.80;0.40;;;;;;;;;;5066007;28;20027;-55
2021/12/30 14:47:39;;;;;;;1.23;0.30;;;;;;;;;;5063726;28;20086;-57
2021/12/30 14:50:11;;;;;;;0.30;0.30;;;;;;;;;;5067406;28;20029;-55
2021/12/30 14:52:37;;;;;;;;;;;;;;;;;;5049332;28;20079;-49
2021/12/30 14:55:10;;;;;;;1.55;0.55;;;;;;;;;;5068204;28;20013;-57
2021/12/30 14:57:35;;;;;;;0.30;0.30;;;;;;;;;;5069060;28;20082;-55
2021/12/30 15:00:05;;;;;;;2.33;0.40;;;;;;;;;;5067407;28;20037;-54
2021/12/30 15:02:31;;;;;;;0.45;0.40;;;;;;;;;;5067414;28;20039;-57
2021/12/30 15:04:56;;;;;;;1.95;0.70;;;;;;;;;;5048432;28;20028;-54
2021/12/30 15:07:22;;;;;;;0.75;0.38;;;;;;;;;;5061724;28;20792;-56
2021/12/30 15:09:51;;;;;;;2.95;0.50;;;;;;;;;;5049993;28;20152;-55
2021/12/30 15:12:23;;;;;;;0.68;0.45;;;;;;;;;;5065997;28;20155;-55
2021/12/30 15:14:50;;;;;;;3.40;0.80;;;;;;;;;;5062360;28;20084;-56
2021/12/30 15:17:16;;;;;;;3.13;0.50;;;;;;;;;;5066728;28;20113;-53
2021/12/30 15:19:41;;;;;;;2.00;0.75;;;;;;;;;;5065821;28;20040;-48
2021/12/30 15:22:07;;;;;;;1.65;0.90;;;;;;;;;;5068458;28;20031;-51
2021/12/30 15:24:33;;;;;;;2.42;0.80;;;;;;;;;;5048442;28;20028;-57
2021/12/30 15:26:59;;;;;;;0.77;0.40;;;;;;;;;;5067638;28;20146;-56